ETSL

Lechfeld Airbase

Airport
ICAO code
ETSL
Summary
ICAO Region
EUR
ICAO Territory
Location

Lagerlechfeld, Bavaria,

Coordinates
48° 11' 10" N , 10° 51' 42" E
Metar
Observation
ETSL 032020Z 24018KT 9999 -RA BKN015 04/02 Q1027 WHT
Station
Lechfeld
Date/Time
2023-02-03 20:20:00
Wind direction
240°
Wind speed
18 kts
Lowest cloud amount
broken clouds
Temperature
4°C
Dew point
2°C
Humidity
86%
QNH
1027 hPa
Weather condition
light rain

Description

Lechfeld Air Base is a German Air Force base located 1 km east of Lagerlechfeld in Bavaria.

Runways

Designator Length Width Surface Rops
3/21 2442 30 CON No/No

Airport map

Aerial View

SKYbrary Partners:

Safety knowledge contributed by: